sensor_id;sensor_type;location;lat;lon;timestamp;pressure;altitude;pressure_sealevel;temperature;humidity
60373;BME280;46216;52.220;5.134;2023-02-07T00:02:18;104242.38;;;1.50;100.00
60373;BME280;46216;52.220;5.134;2023-02-07T00:04:43;104241.44;;;1.48;100.00
60373;BME280;46216;52.220;5.134;2023-02-07T00:07:09;104237.94;;;1.47;100.00
60373;BME280;46216;52.220;5.134;2023-02-07T00:09:34;104236.19;;;1.46;100.00
60373;BME280;46216;52.220;5.134;2023-02-07T00:12:02;104237.81;;;1.42;100.00
60373;BME280;46216;52.220;5.134;2023-02-07T00:14:28;104237.81;;;1.42;100.00
60373;BME280;46216;52.220;5.134;2023-02-07T00:16:53;104233.38;;;1.38;100.00
60373;BME280;46216;52.220;5.134;2023-02-07T00:19:19;104224.59;;;1.36;100.00
60373;BME280;46216;52.220;5.134;2023-02-07T00:21:44;104232.44;;;1.35;100.00
60373;BME280;46216;52.220;5.134;2023-02-07T00:24:09;104234.16;;;1.34;100.00
60373;BME280;46216;52.220;5.134;2023-02-07T00:26:34;104230.56;;;1.29;100.00
60373;BME280;46216;52.220;5.134;2023-02-07T00:29:00;104235.63;;;1.20;100.00
60373;BME280;46216;52.220;5.134;2023-02-07T00:31:28;104234.69;;;1.16;100.00
60373;BME280;46216;52.220;5.134;2023-02-07T00:33:57;104236.38;;;1.14;100.00
60373;BME280;46216;52.220;5.134;2023-02-07T00:36:26;104234.56;;;1.12;100.00
60373;BME280;46216;52.220;5.134;2023-02-07T00:38:55;104227.53;;;1.09;100.00
60373;BME280;46216;52.220;5.134;2023-02-07T00:41:21;104220.47;;;1.07;100.00
60373;BME280;46216;52.220;5.134;2023-02-07T00:43:47;104229.16;;;1.04;100.00
60373;BME280;46216;52.220;5.134;2023-02-07T00:46:12;104232.66;;;1.03;100.00
60373;BME280;46216;52.220;5.134;2023-02-07T00:48:38;104239.59;;;1.01;100.00
60373;BME280;46216;52.220;5.134;2023-02-07T00:51:04;104235.19;;;1.00;100.00
60373;BME280;46216;52.220;5.134;2023-02-07T00:53:30;104233.38;;;0.98;100.00
60373;BME280;46216;52.220;5.134;2023-02-07T00:55:56;104235.13;;;0.97;100.00
60373;BME280;46216;52.220;5.134;2023-02-07T00:58:21;104239.50;;;0.97;100.00
60373;BME280;46216;52.220;5.134;2023-02-07T01:00:47;104230.75;;;0.96;100.00
60373;BME280;46216;52.220;5.134;2023-02-07T01:03:12;104229.00;;;0.97;100.00
60373;BME280;46216;52.220;5.134;2023-02-07T01:05:38;104228.94;;;0.95;100.00
60373;BME280;46216;52.220;5.134;2023-02-07T01:08:03;104229.00;;;0.97;100.00
60373;BME280;46216;52.220;5.134;2023-02-07T01:10:29;104231.63;;;0.98;100.00
60373;BME280;46216;52.220;5.134;2023-02-07T01:12:55;104237.81;;;0.99;100.00
60373;BME280;46216;52.220;5.134;2023-02-07T01:15:20;104246.59;;;1.01;100.00
60373;BME280;46216;52.220;5.134;2023-02-07T01:17:45;104240.47;;;1.02;100.00
60373;BME280;46216;52.220;5.134;2023-02-07T01:20:11;104232.56;;;1.00;100.00
60373;BME280;46216;52.220;5.134;2023-02-07T01:22:38;104240.53;;;1.03;100.00
60373;BME280;46216;52.220;5.134;2023-02-07T01:25:05;104236.16;;;1.04;100.00
60373;BME280;46216;52.220;5.134;2023-02-07T01:27:33;104243.16;;;1.05;100.00
60373;BME280;46216;52.220;5.134;2023-02-07T01:29:59;104239.66;;;1.04;100.00
60373;BME280;46216;52.220;5.134;2023-02-07T01:32:25;104246.75;;;1.08;100.00
60373;BME280;46216;52.220;5.134;2023-02-07T01:34:50;104239.81;;;1.10;100.00
60373;BME280;46216;52.220;5.134;2023-02-07T01:37:16;104237.16;;;1.09;100.00
60373;BME280;46216;52.220;5.134;2023-02-07T01:39:41;104235.28;;;1.05;100.00
60373;BME280;46216;52.220;5.134;2023-02-07T01:42:12;104241.47;;;1.07;100.00
60373;BME280;46216;52.220;5.134;2023-02-07T01:47:04;104239.72;;;1.06;100.00
60373;BME280;46216;52.220;5.134;2023-02-07T01:49:32;104244.03;;;1.04;100.00
60373;BME280;46216;52.220;5.134;2023-02-07T01:52:09;104247.44;;;1.00;100.00
60373;BME280;46216;52.220;5.134;2023-02-07T01:54:35;104243.91;;;0.98;100.00
60373;BME280;46216;52.220;5.134;2023-02-07T01:57:12;104243.91;;;0.98;100.00
60373;BME280;46216;52.220;5.134;2023-02-07T01:59:39;104244.81;;;1.00;100.00
60373;BME280;46216;52.220;5.134;2023-02-07T02:02:10;104240.38;;;0.97;100.00
60373;BME280;46216;52.220;5.134;2023-02-07T02:04:37;104237.75;;;0.97;100.00
60373;BME280;46216;52.220;5.134;2023-02-07T02:07:04;104235.13;;;0.96;100.00
60373;BME280;46216;52.220;5.134;2023-02-07T02:09:30;104237.75;;;0.96;100.00
60373;BME280;46216;52.220;5.134;2023-02-07T02:20:17;104239.34;;;0.90;100.00
60373;BME280;46216;52.220;5.134;2023-02-07T02:25:54;104248.09;;;0.89;100.00
60373;BME280;46216;52.220;5.134;2023-02-07T02:28:51;104234.91;;;0.88;100.00
60373;BME280;46216;52.220;5.134;2023-02-07T02:31:44;104239.28;;;0.87;100.00
60373;BME280;46216;52.220;5.134;2023-02-07T02:34:21;104241.84;;;0.84;100.00
60373;BME280;46216;52.220;5.134;2023-02-07T02:37:05;104251.38;;;0.79;100.00
60373;BME280;46216;52.220;5.134;2023-02-07T02:40:06;104253.06;;;0.77;100.00
60373;BME280;46216;52.220;5.134;2023-02-07T02:42:48;104246.03;;;0.76;100.00
60373;BME280;46216;52.220;5.134;2023-02-07T02:45:23;104245.97;;;0.73;100.00
60373;BME280;46216;52.220;5.134;2023-02-07T02:47:51;104250.34;;;0.73;100.00
60373;BME280;46216;52.220;5.134;2023-02-07T02:50:25;104246.78;;;0.70;100.00
60373;BME280;46216;52.220;5.134;2023-02-07T02:52:51;104242.38;;;0.69;100.00
60373;BME280;46216;52.220;5.134;2023-02-07T02:55:31;104237.94;;;0.67;100.00
60373;BME280;46216;52.220;5.134;2023-02-07T03:00:57;104245.66;;;0.61;100.00
60373;BME280;46216;52.220;5.134;2023-02-07T03:03:35;104246.59;;;0.61;100.00
60373;BME280;46216;52.220;5.134;2023-02-07T03:11:58;104236.56;;;0.45;100.00
60373;BME280;46216;52.220;5.134;2023-02-07T03:14:35;104250.50;;;0.44;100.00
60373;BME280;46216;52.220;5.134;2023-02-07T03:17:31;104242.63;;;0.42;100.00
60373;BME280;46216;52.220;5.134;2023-02-07T03:20:08;104246.03;;;0.38;100.00
60373;BME280;46216;52.220;5.134;2023-02-07T03:22:35;104225.84;;;0.36;100.00
60373;BME280;46216;52.220;5.134;2023-02-07T03:25:03;104227.47;;;0.31;100.00
60373;BME280;46216;52.220;5.134;2023-02-07T03:27:30;104227.41;;;0.29;100.00
60373;BME280;46216;52.220;5.134;2023-02-07T03:30:00;104224.63;;;0.23;100.00
60373;BME280;46216;52.220;5.134;2023-02-07T03:32:30;104229.06;;;0.24;100.00
60373;BME280;46216;52.220;5.134;2023-02-07T03:35:05;104222.00;;;0.21;100.00
60373;BME280;46216;52.220;5.134;2023-02-07T03:37:37;104223.69;;;0.19;100.00
60373;BME280;46216;52.220;5.134;2023-02-07T03:40:04;104228.91;;;0.18;100.00
60373;BME280;46216;52.220;5.134;2023-02-07T03:42:37;104234.97;;;0.17;100.00
60373;BME280;46216;52.220;5.134;2023-02-07T03:45:04;104236.78;;;0.18;100.00
60373;BME280;46216;52.220;5.134;2023-02-07T03:47:30;104229.69;;;0.14;100.00
60373;BME280;46216;52.220;5.134;2023-02-07T03:49:56;104227.00;;;0.12;100.00
60373;BME280;46216;52.220;5.134;2023-02-07T03:52:21;104220.72;;;0.06;100.00
60373;BME280;46216;52.220;5.134;2023-02-07T03:54:47;104226.75;;;0.03;100.00
60373;BME280;46216;52.220;5.134;2023-02-07T03:57:12;104228.50;;;0.03;100.00
60373;BME280;46216;52.220;5.134;2023-02-07T03:59:38;104231.13;;;0.03;100.00
60373;BME280;46216;52.220;5.134;2023-02-07T04:02:03;104225.88;;;0.03;100.00
60373;BME280;46216;52.220;5.134;2023-02-07T04:04:29;104232.00;;;0.03;100.00
60373;BME280;46216;52.220;5.134;2023-02-07T04:06:54;104220.63;;;0.03;100.00
60373;BME280;46216;52.220;5.134;2023-02-07T04:09:20;104220.63;;;0.03;100.00
60373;BME280;46216;52.220;5.134;2023-02-07T04:11:49;104213.69;;;0.05;100.00
60373;BME280;46216;52.220;5.134;2023-02-07T04:14:14;104216.25;;;0.02;100.00
60373;BME280;46216;52.220;5.134;2023-02-07T04:16:40;104222.44;;;0.04;100.00
60373;BME280;46216;52.220;5.134;2023-02-07T04:19:05;104219.81;;;0.05;100.00
60373;BME280;46216;52.220;5.134;2023-02-07T04:21:31;104211.97;;;0.07;100.00
60373;BME280;46216;52.220;5.134;2023-02-07T04:23:56;104212.81;;;0.04;100.00
60373;BME280;46216;52.220;5.134;2023-02-07T04:26:21;104218.94;;;0.05;100.00
60373;BME280;46216;52.220;5.134;2023-02-07T04:28:47;104211.06;;;0.05;100.00
60373;BME280;46216;52.220;5.134;2023-02-07T04:31:12;104203.28;;;0.08;100.00
60373;BME280;46216;52.220;5.134;2023-02-07T04:33:37;104213.81;;;0.09;100.00
60373;BME280;46216;52.220;5.134;2023-02-07T04:36:03;104214.69;;;0.10;100.00
60373;BME280;46216;52.220;5.134;2023-02-07T04:38:29;104210.31;;;0.09;100.00
60373;BME280;46216;52.220;5.134;2023-02-07T04:40:59;104210.38;;;0.12;100.00
60373;BME280;46216;52.220;5.134;2023-02-07T04:43:27;104231.38;;;0.12;100.00
60373;BME280;46216;52.220;5.134;2023-02-07T04:45:52;104212.97;;;0.10;100.00
60373;BME280;46216;52.220;5.134;2023-02-07T04:48:18;104206.00;;;0.11;100.00
60373;BME280;46216;52.220;5.134;2023-02-07T04:50:43;104214.75;;;0.13;100.00
60373;BME280;46216;52.220;5.134;2023-02-07T04:53:09;104219.13;;;0.12;100.00
60373;BME280;46216;52.220;5.134;2023-02-07T04:55:34;104198.06;;;0.09;100.00
60373;BME280;46216;52.220;5.134;2023-02-07T04:58:02;104208.56;;;0.09;100.00
60373;BME280;46216;52.220;5.134;2023-02-07T05:00:27;104219.09;;;0.11;100.00
60373;BME280;46216;52.220;5.134;2023-02-07T05:02:52;104213.84;;;0.11;100.00
60373;BME280;46216;52.220;5.134;2023-02-07T05:05:18;104220.00;;;0.13;100.00
60373;BME280;46216;52.220;5.134;2023-02-07T05:07:43;104203.44;;;0.14;100.00
60373;BME280;46216;52.220;5.134;2023-02-07T05:10:08;104205.13;;;0.12;100.00
60373;BME280;46216;52.220;5.134;2023-02-07T05:12:34;104209.50;;;0.11;100.00
60373;BME280;46216;52.220;5.134;2023-02-07T05:15:00;104204.25;;;0.11;100.00
60373;BME280;46216;52.220;5.134;2023-02-07T05:17:25;104198.03;;;0.08;100.00
60373;BME280;46216;52.220;5.134;2023-02-07T05:19:51;104211.06;;;0.05;100.00
60373;BME280;46216;52.220;5.134;2023-02-07T05:22:16;104207.69;;;0.09;100.00
60373;BME280;46216;52.220;5.134;2023-02-07T05:24:41;104217.22;;;0.07;100.00
60373;BME280;46216;52.220;5.134;2023-02-07T05:27:08;104208.44;;;0.05;100.00
60373;BME280;46216;52.220;5.134;2023-02-07T05:29:33;104221.50;;;0.03;100.00
60373;BME280;46216;52.220;5.134;2023-02-07T05:31:58;104220.63;;;0.03;100.00
60373;BME280;46216;52.220;5.134;2023-02-07T05:34:42;104214.56;;;0.04;100.00
60373;BME280;46216;52.220;5.134;2023-02-07T05:37:07;104217.19;;;0.04;100.00
60373;BME280;46216;52.220;5.134;2023-02-07T05:39:33;104218.00;;;0.03;100.00
60373;BME280;46216;52.220;5.134;2023-02-07T05:41:58;104224.19;;;0.05;100.00
60373;BME280;46216;52.220;5.134;2023-02-07T05:44:23;104220.59;;;0.01;100.00
60373;BME280;46216;52.220;5.134;2023-02-07T05:46:49;104222.34;;;0.01;100.00
60373;BME280;46216;52.220;5.134;2023-02-07T05:49:15;104220.47;;;-0.04;100.00
60373;BME280;46216;52.220;5.134;2023-02-07T05:51:40;104229.28;;;-0.02;100.00
60373;BME280;46216;52.220;5.134;2023-02-07T05:54:06;104230.91;;;-0.07;100.00
60373;BME280;46216;52.220;5.134;2023-02-07T05:56:31;104237.91;;;-0.06;100.00
60373;BME280;46216;52.220;5.134;2023-02-07T05:58:56;104228.31;;;-0.05;100.00
60373;BME280;46216;52.220;5.134;2023-02-07T06:01:22;104227.41;;;-0.06;100.00
60373;BME280;46216;52.220;5.134;2023-02-07T06:03:47;104230.91;;;-0.07;100.00
60373;BME280;46216;52.220;5.134;2023-02-07T06:06:12;104221.22;;;-0.09;100.00
60373;BME280;46216;52.220;5.134;2023-02-07T06:08:38;104235.22;;;-0.09;100.00
60373;BME280;46216;52.220;5.134;2023-02-07T06:11:03;104232.59;;;-0.09;100.00
60373;BME280;46216;52.220;5.134;2023-02-07T06:13:29;104219.38;;;-0.12;100.00
60373;BME280;46216;52.220;5.134;2023-02-07T06:15:54;104223.69;;;-0.14;100.00
60373;BME280;46216;52.220;5.134;2023-02-07T06:18:19;104230.66;;;-0.16;100.00
60373;BME280;46216;52.220;5.134;2023-02-07T06:20:45;104229.75;;;-0.16;100.00
60373;BME280;46216;52.220;5.134;2023-02-07T06:23:10;104235.03;;;-0.15;100.00
60373;BME280;46216;52.220;5.134;2023-02-07T06:25:35;104228.03;;;-0.16;100.00
60373;BME280;46216;52.220;5.134;2023-02-07T06:28:01;104233.28;;;-0.16;100.00
60373;BME280;46216;52.220;5.134;2023-02-07T06:30:26;104225.25;;;-0.22;100.00
60373;BME280;46216;52.220;5.134;2023-02-07T06:32:51;104218.09;;;-0.28;100.00
60373;BME280;46216;52.220;5.134;2023-02-07T06:35:17;104225.16;;;-0.25;100.00
60373;BME280;46216;52.220;5.134;2023-02-07T06:37:42;104234.72;;;-0.27;100.00
60373;BME280;46216;52.220;5.134;2023-02-07T06:40:08;104230.31;;;-0.28;100.00
60373;BME280;46216;52.220;5.134;2023-02-07T06:42:33;104236.44;;;-0.28;100.00
60373;BME280;46216;52.220;5.134;2023-02-07T06:44:59;104231.09;;;-0.31;100.00
60373;BME280;46216;52.220;5.134;2023-02-07T06:47:24;104229.31;;;-0.33;100.00
60373;BME280;46216;52.220;5.134;2023-02-07T06:49:49;104239.72;;;-0.36;100.00
60373;BME280;46216;52.220;5.134;2023-02-07T06:52:15;104239.66;;;-0.38;100.00
60373;BME280;46216;52.220;5.134;2023-02-07T06:54:40;104244.84;;;-0.39;100.00
60373;BME280;46216;52.220;5.134;2023-02-07T06:57:06;104243.09;;;-0.40;100.00
60373;BME280;46216;52.220;5.134;2023-02-07T06:59:31;104240.50;;;-0.39;100.00
60373;BME280;46216;52.220;5.134;2023-02-07T07:01:56;104248.44;;;-0.37;100.00
60373;BME280;46216;52.220;5.134;2023-02-07T07:04:24;104251.88;;;-0.38;100.00
60373;BME280;46216;52.220;5.134;2023-02-07T07:06:49;104257.25;;;-0.34;100.00
60373;BME280;46216;52.220;5.134;2023-02-07T07:09:15;104259.81;;;-0.35;100.00
60373;BME280;46216;52.220;5.134;2023-02-07T07:11:40;104258.81;;;-0.40;100.00
60373;BME280;46216;52.220;5.134;2023-02-07T07:14:10;104267.69;;;-0.35;100.00
60373;BME280;46216;52.220;5.134;2023-02-07T07:16:36;104258.84;;;-0.39;100.00
60373;BME280;46216;52.220;5.134;2023-02-07T07:19:01;104263.22;;;-0.39;100.00
60373;BME280;46216;52.220;5.134;2023-02-07T07:21:26;104256.28;;;-0.37;100.00
60373;BME280;46216;52.220;5.134;2023-02-07T07:23:52;104255.44;;;-0.36;100.00
60373;BME280;46216;52.220;5.134;2023-02-07T07:26:18;104260.69;;;-0.36;100.00
60373;BME280;46216;52.220;5.134;2023-02-07T07:28:43;104260.63;;;-0.38;100.00
60373;BME280;46216;52.220;5.134;2023-02-07T07:31:09;104253.53;;;-0.42;100.00
60373;BME280;46216;52.220;5.134;2023-02-07T07:33:35;104268.44;;;-0.39;100.00
60373;BME280;46216;52.220;5.134;2023-02-07T07:36:01;104265.75;;;-0.41;100.00
60373;BME280;46216;52.220;5.134;2023-02-07T07:38:27;104260.59;;;-0.39;100.00
60373;BME280;46216;52.220;5.134;2023-02-07T07:40:52;104267.66;;;-0.37;100.00
60373;BME280;46216;52.220;5.134;2023-02-07T07:43:18;104273.88;;;-0.33;100.00
60373;BME280;46216;52.220;5.134;2023-02-07T07:45:43;104266.88;;;-0.33;100.00
60373;BME280;46216;52.220;5.134;2023-02-07T07:48:08;104270.38;;;-0.32;100.00
60373;BME280;46216;52.220;5.134;2023-02-07T07:50:34;104273.00;;;-0.32;100.00
60373;BME280;46216;52.220;5.134;2023-02-07T07:52:59;104283.50;;;-0.32;100.00
60373;BME280;46216;52.220;5.134;2023-02-07T07:55:24;104276.50;;;-0.33;100.00
60373;BME280;46216;52.220;5.134;2023-02-07T07:57:53;104287.00;;;-0.32;100.00
60373;BME280;46216;52.220;5.134;2023-02-07T08:00:18;104278.28;;;-0.31;100.00
60373;BME280;46216;52.220;5.134;2023-02-07T08:02:43;104279.28;;;-0.27;100.00
60373;BME280;46216;52.220;5.134;2023-02-07T08:05:09;104288.84;;;-0.28;100.00
60373;BME280;46216;52.220;5.134;2023-02-07T08:07:35;104284.53;;;-0.27;100.00
60373;BME280;46216;52.220;5.134;2023-02-07T08:10:01;104281.91;;;-0.27;100.00
60373;BME280;46216;52.220;5.134;2023-02-07T08:12:26;104286.28;;;-0.26;100.00
60373;BME280;46216;52.220;5.134;2023-02-07T08:14:52;104283.84;;;-0.20;100.00
60373;BME280;46216;52.220;5.134;2023-02-07T08:17:17;104284.75;;;-0.18;100.00
60373;BME280;46216;52.220;5.134;2023-02-07T08:19:43;104285.72;;;-0.14;100.00
60373;BME280;46216;52.220;5.134;2023-02-07T08:22:08;104280.56;;;-0.11;100.00
60373;BME280;46216;52.220;5.134;2023-02-07T08:24:33;104279.88;;;-0.06;100.00
60373;BME280;46216;52.220;5.134;2023-02-07T08:27:00;104279.09;;;-0.02;100.00
60373;BME280;46216;52.220;5.134;2023-02-07T08:29:25;104280.16;;;0.07;100.00
60373;BME280;46216;52.220;5.134;2023-02-07T08:31:51;104284.63;;;0.09;100.00
60373;BME280;46216;52.220;5.134;2023-02-07T08:34:16;104284.75;;;0.14;100.00
60373;BME280;46216;52.220;5.134;2023-02-07T08:36:43;104277.88;;;0.19;100.00
60373;BME280;46216;52.220;5.134;2023-02-07T08:39:08;104277.00;;;0.18;100.00
60373;BME280;46216;52.220;5.134;2023-02-07T08:41:33;104279.03;;;0.30;100.00
60373;BME280;46216;52.220;5.134;2023-02-07T08:43:59;104292.31;;;0.36;100.00
60373;BME280;46216;52.220;5.134;2023-02-07T08:46:24;104298.69;;;0.46;100.00
60373;BME280;46216;52.220;5.134;2023-02-07T08:48:49;104301.56;;;0.55;100.00
60373;BME280;46216;52.220;5.134;2023-02-07T08:51:15;104306.19;;;0.65;100.00
60373;BME280;46216;52.220;5.134;2023-02-07T08:53:40;104295.78;;;0.70;100.00
60373;BME280;46216;52.220;5.134;2023-02-07T08:56:06;104299.50;;;0.80;100.00
60373;BME280;46216;52.220;5.134;2023-02-07T08:58:32;104308.28;;;0.80;100.00
60373;BME280;46216;52.220;5.134;2023-02-07T09:00:58;104298.91;;;0.91;100.00
60373;BME280;46216;52.220;5.134;2023-02-07T09:03:23;104292.09;;;1.00;100.00
60373;BME280;46216;52.220;5.134;2023-02-07T09:05:48;104289.69;;;1.09;100.00
60373;BME280;46216;52.220;5.134;2023-02-07T09:08:14;104291.59;;;1.16;100.00
60373;BME280;46216;52.220;5.134;2023-02-07T09:10:39;104297.03;;;1.25;100.00
60373;BME280;46216;52.220;5.134;2023-02-07T09:13:04;104287.63;;;1.35;100.00
60373;BME280;46216;52.220;5.134;2023-02-07T09:15:30;104297.59;;;1.50;100.00
60373;BME280;46216;52.220;5.134;2023-02-07T09:17:55;104291.66;;;1.60;100.00
60373;BME280;46216;52.220;5.134;2023-02-07T09:20:21;104289.31;;;1.75;100.00
60373;BME280;46216;52.220;5.134;2023-02-07T09:22:46;104293.97;;;1.90;100.00
60373;BME280;46216;52.220;5.134;2023-02-07T09:25:41;104295.97;;;2.03;100.00
60373;BME280;46216;52.220;5.134;2023-02-07T09:28:06;104281.31;;;2.16;100.00
60373;BME280;46216;52.220;5.134;2023-02-07T09:30:31;104291.19;;;2.29;100.00
60373;BME280;46216;52.220;5.134;2023-02-07T09:32:57;104281.69;;;2.37;100.00
60373;BME280;46216;52.220;5.134;2023-02-07T09:35:22;104273.94;;;2.45;100.00
60373;BME280;46216;52.220;5.134;2023-02-07T09:37:51;104280.31;;;2.61;100.00
60373;BME280;46216;52.220;5.134;2023-02-07T09:40:18;104277.00;;;2.74;100.00
60373;BME280;46216;52.220;5.134;2023-02-07T09:45:16;104275.41;;;2.82;100.00
60373;BME280;46216;52.220;5.134;2023-02-07T09:47:43;104278.91;;;2.84;100.00
60373;BME280;46216;52.220;5.134;2023-02-07T09:50:20;104276.47;;;2.98;100.00
60373;BME280;46216;52.220;5.134;2023-02-07T09:52:56;104274.03;;;3.12;100.00
60373;BME280;46216;52.220;5.134;2023-02-07T09:55:28;104268.03;;;3.22;100.00
60373;BME280;46216;52.220;5.134;2023-02-07T09:58:01;104274.34;;;3.34;100.00
60373;BME280;46216;52.220;5.134;2023-02-07T10:00:30;104283.25;;;3.46;100.00
60373;BME280;46216;52.220;5.134;2023-02-07T10:03:03;104284.28;;;3.56;100.00
60373;BME280;46216;52.220;5.134;2023-02-07T10:05:55;104284.44;;;3.70;100.00
60373;BME280;46216;52.220;5.134;2023-02-07T10:08:23;104287.22;;;3.81;100.00
60373;BME280;46216;52.220;5.134;2023-02-07T10:16:32;104288.44;;;4.15;100.00
60373;BME280;46216;52.220;5.134;2023-02-07T10:25:19;104291.28;;;4.38;100.00
60373;BME280;46216;52.220;5.134;2023-02-07T10:27:59;104286.16;;;4.56;100.00
60373;BME280;46216;52.220;5.134;2023-02-07T10:30:30;104287.97;;;4.63;100.00
60373;BME280;46216;52.220;5.134;2023-02-07T10:33:01;104285.41;;;4.74;100.00
60373;BME280;46216;52.220;5.134;2023-02-07T10:35:35;104280.13;;;4.74;100.00
60373;BME280;46216;52.220;5.134;2023-02-07T10:38:02;104279.34;;;4.90;100.00
60373;BME280;46216;52.220;5.134;2023-02-07T10:40:34;104285.59;;;5.05;100.00
60373;BME280;46216;52.220;5.134;2023-02-07T10:43:10;104278.66;;;5.25;100.00
60373;BME280;46216;52.220;5.134;2023-02-07T10:45:38;104274.31;;;5.39;100.00
60373;BME280;46216;52.220;5.134;2023-02-07T10:48:24;104273.50;;;5.53;100.00
60373;BME280;46216;52.220;5.134;2023-02-07T10:50:49;104279.72;;;5.68;100.00
60373;BME280;46216;52.220;5.134;2023-02-07T10:53:48;104272.69;;;5.77;100.00
60373;BME280;46216;52.220;5.134;2023-02-07T10:56:25;104272.78;;;5.95;100.00
60373;BME280;46216;52.220;5.134;2023-02-07T10:58:51;104266.59;;;6.05;100.00
60373;BME280;46216;52.220;5.134;2023-02-07T11:01:23;104263.97;;;6.05;100.00
60373;BME280;46216;52.220;5.134;2023-02-07T11:03:50;104249.84;;;6.12;100.00
60373;BME280;46216;52.220;5.134;2023-02-07T11:06:25;104244.53;;;6.06;100.00
60373;BME280;46216;52.220;5.134;2023-02-07T11:09:09;104238.38;;;6.09;100.00
60373;BME280;46216;52.220;5.134;2023-02-07T11:11:35;104242.78;;;6.33;100.00
60373;BME280;46216;52.220;5.134;2023-02-07T11:14:04;104239.25;;;6.34;100.00
60373;BME280;46216;52.220;5.134;2023-02-07T11:16:30;104233.94;;;6.40;100.00
60373;BME280;46216;52.220;5.134;2023-02-07T11:19:03;104232.19;;;6.30;100.00
60373;BME280;46216;52.220;5.134;2023-02-07T11:21:30;104228.63;;;6.28;100.00
60373;BME280;46216;52.220;5.134;2023-02-07T11:24:05;104228.66;;;6.19;100.00
60373;BME280;46216;52.220;5.134;2023-02-07T11:26:33;104229.53;;;6.25;100.00
60373;BME280;46216;52.220;5.134;2023-02-07T11:29:12;104231.28;;;6.06;100.00
60373;BME280;46216;52.220;5.134;2023-02-07T11:31:40;104226.88;;;6.02;100.00
60373;BME280;46216;52.220;5.134;2023-02-07T11:36:50;104222.44;;;5.92;100.00
60373;BME280;46216;52.220;5.134;2023-02-07T11:39:18;104224.13;;;5.67;100.00
60373;BME280;46216;52.220;5.134;2023-02-07T11:41:58;104212.66;;;5.69;100.00
60373;BME280;46216;52.220;5.134;2023-02-07T11:44:24;104223.25;;;5.66;100.00
60373;BME280;46216;52.220;5.134;2023-02-07T11:46:53;104219.75;;;5.67;100.00
60373;BME280;46216;52.220;5.134;2023-02-07T11:49:28;104210.00;;;5.59;100.00
60373;BME280;46216;52.220;5.134;2023-02-07T11:51:59;104211.75;;;5.52;100.00
60373;BME280;46216;52.220;5.134;2023-02-07T11:54:27;104193.28;;;5.67;100.00
60373;BME280;46216;52.220;5.134;2023-02-07T11:57:06;104202.06;;;5.63;100.00
60373;BME280;46216;52.220;5.134;2023-02-07T11:59:33;104186.22;;;5.57;100.00
60373;BME280;46216;52.220;5.134;2023-02-07T12:02:15;104193.25;;;5.55;100.00
60373;BME280;46216;52.220;5.134;2023-02-07T12:04:41;104195.00;;;5.49;100.00
60373;BME280;46216;52.220;5.134;2023-02-07T12:07:13;104180.88;;;5.45;100.00
60373;BME280;46216;52.220;5.134;2023-02-07T12:09:44;104182.63;;;5.49;100.00
60373;BME280;46216;52.220;5.134;2023-02-07T12:12:32;104179.97;;;5.41;100.00
60373;BME280;46216;52.220;5.134;2023-02-07T12:15:09;104179.97;;;5.46;100.00
60373;BME280;46216;52.220;5.134;2023-02-07T12:18:01;104173.84;;;5.47;100.00
60373;BME280;46216;52.220;5.134;2023-02-07T12:20:32;104175.59;;;5.51;100.00
60373;BME280;46216;52.220;5.134;2023-02-07T12:25:35;104188.88;;;5.71;100.00
60373;BME280;46216;52.220;5.134;2023-02-07T12:28:12;104182.66;;;5.70;100.00
60373;BME280;46216;52.220;5.134;2023-02-07T12:30:43;104184.44;;;5.65;100.00
60373;BME280;46216;52.220;5.134;2023-02-07T12:36:02;104184.41;;;5.59;100.00
60373;BME280;46216;52.220;5.134;2023-02-07T12:38:43;104183.50;;;5.39;100.00
60373;BME280;46216;52.220;5.134;2023-02-07T12:47:08;104184.34;;;5.29;100.00
60373;BME280;46216;52.220;5.134;2023-02-07T12:56:26;104170.25;;;5.24;100.00
60373;BME280;46216;52.220;5.134;2023-02-07T12:58:47;104173.75;;;5.26;100.00
60373;BME280;46216;52.220;5.134;2023-02-07T13:07:07;104164.88;;;5.05;100.00
60373;BME280;46216;52.220;5.134;2023-02-07T13:12:18;104149.91;;;5.10;100.00
60373;BME280;46216;52.220;5.134;2023-02-07T13:20:45;104152.59;;;5.13;100.00
60373;BME280;46216;52.220;5.134;2023-02-07T13:23:30;104146.41;;;5.19;100.00
60373;BME280;46216;52.220;5.134;2023-02-07T13:26:03;104129.69;;;5.25;100.00
60373;BME280;46216;52.220;5.134;2023-02-07T13:29:01;104124.38;;;5.15;100.00
60373;BME280;46216;52.220;5.134;2023-02-07T13:31:42;104128.81;;;5.29;100.00
60373;BME280;46216;52.220;5.134;2023-02-07T13:34:22;104129.69;;;5.25;100.00
60373;BME280;46216;52.220;5.134;2023-02-07T13:36:49;104131.47;;;5.35;100.00
60373;BME280;46216;52.220;5.134;2023-02-07T13:42:22;104123.53;;;5.42;100.00
60373;BME280;46216;52.220;5.134;2023-02-07T13:44:57;104118.25;;;5.49;100.00
60373;BME280;46216;52.220;5.134;2023-02-07T13:50:35;104114.75;;;5.66;100.00
60373;BME280;46216;52.220;5.134;2023-02-07T13:55:42;104114.75;;;5.68;100.00
60373;BME280;46216;52.220;5.134;2023-02-07T14:01:23;104115.66;;;5.72;100.00
60373;BME280;46216;52.220;5.134;2023-02-07T14:04:02;104118.28;;;5.84;100.00
60373;BME280;46216;52.220;5.134;2023-02-07T14:06:31;104105.03;;;5.81;100.00
60373;BME280;46216;52.220;5.134;2023-02-07T14:09:02;104108.59;;;5.86;100.00
60373;BME280;46216;52.220;5.134;2023-02-07T14:11:39;104113.91;;;5.95;100.00
60373;BME280;46216;52.220;5.134;2023-02-07T14:14:13;104117.44;;;6.05;100.00
60373;BME280;46216;52.220;5.134;2023-02-07T14:16:45;104115.66;;;6.19;100.00
60373;BME280;46216;52.220;5.134;2023-02-07T14:19:12;104114.72;;;6.28;100.00
60373;BME280;46216;52.220;5.134;2023-02-07T14:21:40;104116.47;;;6.44;100.00